Time;durP1;ratioP1;P1;durP2;ratioP2;P2;SDS_P1;SDS_P2;PMS_P1;PMS_P2;Temp;Humidity;BMP_temperature;BMP_pressure;BME280_temperature;BME280_humidity;BME280_pressure;Samples;Min_cycle;Max_cycle;Signal;HPM_P1;HPM_P2
2023/01/20 00:02:16;;;;;;;43.80;26.60;;;2.00;99.90;;;;;;5016427;28;20847;-62
2023/01/20 00:04:42;;;;;;;44.50;27.23;;;2.00;99.90;;;;;;5021664;28;20442;-60
2023/01/20 00:07:09;;;;;;;43.70;26.80;;;1.80;99.90;;;;;;5019874;28;20417;-63
2023/01/20 00:09:37;;;;;;;46.13;26.77;;;1.90;99.90;;;;;;5020588;28;20878;-60
2023/01/20 00:12:04;;;;;;;43.30;26.58;;;2.00;99.90;;;;;;5018839;28;20418;-60
2023/01/20 00:14:31;;;;;;;45.47;26.90;;;1.90;99.90;;;;;;5017966;28;20465;-61
2023/01/20 00:16:59;;;;;;;46.42;26.88;;;2.00;99.90;;;;;;5012978;28;20420;-60
2023/01/20 00:19:26;;;;;;;47.47;27.02;;;2.00;99.90;;;;;;5020506;28;20477;-63
2023/01/20 00:21:52;;;;;;;42.20;25.70;;;1.90;99.90;;;;;;5022324;28;20429;-60
2023/01/20 00:24:19;;;;;;;44.67;26.10;;;1.90;99.90;;;;;;5019458;28;20419;-62
2023/01/20 00:26:47;;;;;;;44.20;26.75;;;1.90;99.90;;;;;;5019519;28;20431;-62
2023/01/20 00:29:14;;;;;;;46.53;26.95;;;1.80;99.90;;;;;;5021286;28;20446;-62
2023/01/20 00:31:40;;;;;;;44.13;25.85;;;1.90;99.90;;;;;;5020384;28;20412;-61
2023/01/20 00:34:09;;;;;;;47.60;27.75;;;1.80;99.90;;;;;;5019293;28;20847;-60
2023/01/20 00:36:36;;;;;;;47.28;26.98;;;1.70;99.90;;;;;;5020151;28;20422;-63
2023/01/20 00:39:04;;;;;;;46.67;27.85;;;1.80;99.90;;;;;;5019064;28;20422;-59
2023/01/20 00:41:31;;;;;;;46.10;27.17;;;1.80;99.90;;;;;;5016299;28;20474;-59
2023/01/20 00:43:59;;;;;;;47.75;26.77;;;1.70;99.90;;;;;;5016272;28;20411;-62
2023/01/20 00:46:26;;;;;;;48.50;26.05;;;1.70;99.90;;;;;;5017023;28;21102;-62
2023/01/20 00:48:53;;;;;;;50.10;28.05;;;1.70;99.90;;;;;;5015016;28;20468;-63
2023/01/20 00:51:20;;;;;;;46.40;27.27;;;1.70;99.90;;;;;;5016823;28;20428;-62
2023/01/20 00:53:46;;;;;;;44.22;25.17;;;1.70;99.90;;;;;;5021125;28;20419;-62
2023/01/20 00:56:13;;;;;;;53.10;29.50;;;1.70;99.90;;;;;;5020934;28;20428;-57
2023/01/20 00:58:42;;;;;;;53.00;29.05;;;1.70;99.90;;;;;;5022718;28;20422;-56
2023/01/20 01:01:11;;;;;;;51.80;27.42;;;1.70;99.90;;;;;;5023608;28;20503;-58
2023/01/20 01:03:38;;;;;;;55.28;29.55;;;1.70;99.90;;;;;;5022291;28;20420;-62
2023/01/20 01:06:09;;;;;;;55.28;29.52;;;1.60;99.90;;;;;;5023560;28;20508;-62
2023/01/20 01:08:36;;;;;;;50.83;29.15;;;1.60;99.90;;;;;;5023193;28;20415;-62
2023/01/20 01:11:03;;;;;;;58.67;31.83;;;1.50;99.90;;;;;;5020077;28;20420;-61
2023/01/20 01:13:30;;;;;;;56.65;30.48;;;1.60;99.90;;;;;;5019565;28;20448;-58
2023/01/20 01:15:57;;;;;;;55.33;29.63;;;1.60;99.90;;;;;;5015939;28;20442;-61
2023/01/20 01:18:25;;;;;;;50.05;28.48;;;1.60;99.90;;;;;;5017601;28;20419;-60
2023/01/20 01:20:52;;;;;;;55.33;31.00;;;1.60;99.90;;;;;;5021223;28;20416;-60
2023/01/20 01:23:18;;;;;;;51.78;29.45;;;1.40;99.90;;;;;;5023264;28;20411;-63
2023/01/20 01:25:45;;;;;;;55.63;31.45;;;1.40;99.90;;;;;;5024415;28;20426;-60
2023/01/20 01:28:12;;;;;;;52.90;30.10;;;1.40;99.90;;;;;;5025868;28;20419;-61
2023/01/20 01:30:38;;;;;;;55.20;29.98;;;1.40;99.90;;;;;;5022234;28;20423;-61
2023/01/20 01:33:05;;;;;;;51.78;29.80;;;1.50;99.90;;;;;;5017287;28;20831;-61
2023/01/20 01:35:33;;;;;;;53.42;29.58;;;1.50;99.90;;;;;;5024650;28;20464;-61
2023/01/20 01:38:00;;;;;;;54.40;29.33;;;1.40;99.90;;;;;;5023588;28;20413;-62
2023/01/20 01:40:26;;;;;;;52.10;29.73;;;1.50;99.90;;;;;;5022688;28;21185;-62
2023/01/20 01:42:53;;;;;;;50.42;27.50;;;1.40;99.90;;;;;;5019836;28;20435;-64
2023/01/20 01:45:23;;;;;;;51.42;29.13;;;1.50;99.90;;;;;;5017011;28;20420;-62
2023/01/20 01:47:56;;;;;;;50.97;29.75;;;1.60;99.90;;;;;;5018926;28;20505;-65
2023/01/20 01:50:25;;;;;;;49.78;29.15;;;1.70;99.90;;;;;;5020085;28;20462;-63
2023/01/20 01:52:55;;;;;;;52.70;30.00;;;1.70;99.90;;;;;;5021836;28;20502;-62
2023/01/20 01:55:25;;;;;;;51.53;29.40;;;1.60;99.90;;;;;;5021763;28;20420;-63
2023/01/20 01:57:53;;;;;;;57.95;31.48;;;1.60;99.90;;;;;;5021458;28;20911;-59
2023/01/20 02:00:20;;;;;;;56.67;31.05;;;1.60;99.90;;;;;;5023625;28;20422;-59
2023/01/20 02:02:47;;;;;;;61.78;33.03;;;1.50;99.90;;;;;;5022425;28;20421;-60
2023/01/20 02:05:15;;;;;;;56.95;30.65;;;1.60;99.90;;;;;;5020170;28;20417;-62
2023/01/20 02:07:44;;;;;;;61.05;31.55;;;1.50;99.90;;;;;;5019976;28;20415;-57
2023/01/20 02:10:13;;;;;;;56.35;31.65;;;1.50;99.90;;;;;;5019926;28;20809;-61
2023/01/20 02:12:42;;;;;;;60.85;31.58;;;1.50;99.90;;;;;;5019136;28;20427;-62
2023/01/20 02:15:09;;;;;;;57.95;31.20;;;1.60;99.90;;;;;;5018346;28;20424;-65
2023/01/20 02:17:47;;;;;;;56.20;29.55;;;1.60;99.90;;;;;;5012439;28;20459;-61
2023/01/20 02:20:40;;;;;;;56.00;30.05;;;1.60;99.90;;;;;;5016602;28;20423;-63
2023/01/20 02:23:16;;;;;;;55.67;30.20;;;1.60;99.90;;;;;;5019624;28;20413;-60
2023/01/20 02:26:12;;;;;;;58.45;29.98;;;1.60;99.90;;;;;;5020939;28;20425;-62
2023/01/20 02:29:09;;;;;;;58.58;31.23;;;1.60;99.90;;;;;;5022350;28;20411;-61
2023/01/20 02:32:17;;;;;;;62.97;33.40;;;1.50;99.90;;;;;;5022655;28;20422;-62
2023/01/20 02:34:49;;;;;;;68.18;34.63;;;1.40;99.90;;;;;;5023457;28;20764;-62
2023/01/20 02:37:22;;;;;;;70.32;35.15;;;1.30;99.90;;;;;;5021111;28;20749;-62
2023/01/20 02:39:54;;;;;;;69.07;35.05;;;1.40;99.90;;;;;;5018851;28;20886;-61
2023/01/20 02:42:25;;;;;;;67.47;34.97;;;1.30;99.90;;;;;;5017994;28;20417;-62
2023/01/20 02:44:56;;;;;;;72.75;34.85;;;1.40;99.90;;;;;;5019118;28;20473;-59
2023/01/20 02:47:31;;;;;;;66.05;33.33;;;1.20;99.90;;;;;;5013920;28;20436;-58
2023/01/20 02:50:05;;;;;;;62.08;33.55;;;1.40;99.90;;;;;;5018193;28;20428;-61
2023/01/20 02:52:36;;;;;;;58.78;30.63;;;1.50;99.90;;;;;;5023824;28;20420;-60
2023/01/20 02:55:07;;;;;;;53.90;29.88;;;1.60;99.90;;;;;;5020146;28;20420;-62
2023/01/20 02:57:40;;;;;;;51.67;29.75;;;1.60;99.90;;;;;;5021347;28;20870;-61
2023/01/20 03:00:13;;;;;;;54.10;28.63;;;1.60;99.90;;;;;;5022371;28;20858;-59
2023/01/20 03:02:44;;;;;;;54.72;27.90;;;1.60;99.90;;;;;;5021891;28;20419;-60
2023/01/20 03:05:15;;;;;;;52.60;27.90;;;1.70;99.90;;;;;;5020162;28;20413;-61
2023/01/20 03:07:45;;;;;;;53.95;28.90;;;1.60;99.90;;;;;;5019666;28;20433;-60
2023/01/20 03:10:17;;;;;;;47.63;27.05;;;1.40;99.90;;;;;;5020482;28;20478;-60
2023/01/20 03:12:48;;;;;;;53.83;28.73;;;1.40;99.90;;;;;;5019934;28;20831;-61
2023/01/20 03:15:16;;;;;;;54.15;29.13;;;1.20;99.90;;;;;;5020614;28;20428;-59
2023/01/20 03:17:44;;;;;;;53.33;29.02;;;1.30;99.90;;;;;;5015963;28;20419;-63
2023/01/20 03:20:12;;;;;;;50.63;27.90;;;1.30;99.90;;;;;;5017745;28;20417;-62
2023/01/20 03:22:39;;;;;;;52.63;28.90;;;1.20;99.90;;;;;;5017000;28;21096;-62
2023/01/20 03:25:08;;;;;;;52.05;28.98;;;1.20;99.90;;;;;;5017812;28;20475;-62
2023/01/20 03:27:35;;;;;;;52.55;28.05;;;1.30;99.90;;;;;;5017571;28;20475;-63
2023/01/20 03:30:01;;;;;;;59.35;30.40;;;1.30;99.90;;;;;;5021081;28;20460;-62
2023/01/20 03:32:30;;;;;;;53.60;28.48;;;1.30;99.90;;;;;;5021510;28;20907;-62
2023/01/20 03:34:59;;;;;;;54.63;29.30;;;1.20;99.90;;;;;;5019743;28;20431;-61
2023/01/20 03:37:26;;;;;;;54.63;29.85;;;1.10;99.90;;;;;;5020470;28;20439;-57
2023/01/20 03:39:53;;;;;;;54.38;29.48;;;1.10;99.90;;;;;;5019557;28;20416;-63
2023/01/20 03:42:27;;;;;;;56.33;29.92;;;1.10;99.90;;;;;;5023372;28;20847;-58
2023/01/20 03:45:01;;;;;;;58.08;31.90;;;1.00;99.90;;;;;;5017256;28;20428;-60
2023/01/20 03:47:41;;;;;;;54.80;29.48;;;1.10;99.90;;;;;;5016874;28;20519;-60
2023/01/20 03:50:17;;;;;;;56.13;29.08;;;1.10;99.90;;;;;;5019232;28;20800;-60
2023/01/20 03:52:50;;;;;;;56.40;28.42;;;1.00;99.90;;;;;;5020686;28;20416;-62
2023/01/20 03:55:23;;;;;;;51.88;27.92;;;0.90;99.90;;;;;;5013435;28;20420;-60
2023/01/20 03:57:57;;;;;;;51.25;26.95;;;1.00;99.90;;;;;;5017491;28;20404;-61
2023/01/20 04:00:25;;;;;;;43.50;24.70;;;1.00;99.90;;;;;;5018407;28;20417;-60
2023/01/20 04:02:54;;;;;;;43.78;23.95;;;1.10;99.90;;;;;;5020141;28;20469;-59
2023/01/20 04:05:22;;;;;;;45.15;24.55;;;1.20;99.90;;;;;;5021502;28;20948;-62
2023/01/20 04:07:51;;;;;;;44.70;24.17;;;1.20;99.90;;;;;;5020501;28;20474;-62
2023/01/20 04:10:18;;;;;;;41.70;22.40;;;1.20;99.90;;;;;;5018760;28;20461;-60
2023/01/20 04:12:45;;;;;;;42.10;23.08;;;1.30;99.90;;;;;;5019869;28;20424;-59
2023/01/20 04:15:12;;;;;;;44.25;23.13;;;1.20;99.90;;;;;;5016858;28;20443;-61
2023/01/20 04:17:39;;;;;;;47.30;24.02;;;1.20;99.90;;;;;;5017878;28;20420;-63
2023/01/20 04:20:09;;;;;;;41.88;22.20;;;1.10;99.90;;;;;;5017507;28;20421;-62
2023/01/20 04:22:43;;;;;;;38.38;22.13;;;1.20;99.90;;;;;;5018904;28;20415;-61
2023/01/20 04:25:16;;;;;;;42.30;21.83;;;1.20;99.90;;;;;;5019017;28;20413;-61
2023/01/20 04:27:43;;;;;;;38.90;21.23;;;1.30;99.90;;;;;;5017283;28;20428;-63
2023/01/20 04:30:12;;;;;;;37.63;21.40;;;1.30;99.90;;;;;;5017934;28;20416;-62
2023/01/20 04:32:38;;;;;;;39.55;21.05;;;1.30;99.90;;;;;;5022801;28;20843;-59
2023/01/20 04:35:06;;;;;;;38.88;21.27;;;1.30;99.90;;;;;;5023636;28;20416;-62
2023/01/20 04:37:33;;;;;;;35.05;19.48;;;1.20;99.90;;;;;;5022666;28;20416;-59
2023/01/20 04:40:01;;;;;;;34.35;18.17;;;1.10;99.90;;;;;;5022952;28;20445;-61
2023/01/20 04:42:28;;;;;;;33.42;18.42;;;1.10;99.90;;;;;;5022654;28;20463;-58
2023/01/20 04:44:55;;;;;;;34.63;17.05;;;1.20;99.90;;;;;;5021167;28;20421;-59
2023/01/20 04:47:21;;;;;;;32.63;17.40;;;1.10;99.90;;;;;;5019608;28;20492;-60
2023/01/20 04:49:48;;;;;;;31.75;17.40;;;1.10;99.90;;;;;;5022107;28;20410;-61
2023/01/20 04:52:15;;;;;;;30.02;17.42;;;1.20;99.90;;;;;;5021382;28;20424;-58
2023/01/20 04:54:42;;;;;;;31.63;17.77;;;1.00;99.90;;;;;;5019392;28;20417;-62
2023/01/20 04:57:10;;;;;;;33.97;18.25;;;1.20;99.90;;;;;;5021545;28;20469;-57
2023/01/20 04:59:37;;;;;;;34.10;18.25;;;1.20;99.90;;;;;;5022771;28;20407;-62
2023/01/20 05:02:03;;;;;;;34.63;19.17;;;0.90;99.90;;;;;;5024572;28;20415;-61
2023/01/20 05:04:30;;;;;;;35.33;19.35;;;1.10;99.90;;;;;;5023608;28;20471;-58
2023/01/20 05:06:57;;;;;;;34.17;18.58;;;1.00;99.90;;;;;;5021904;28;20908;-60
2023/01/20 05:09:23;;;;;;;37.15;19.83;;;1.10;99.90;;;;;;5024011;28;20411;-62
2023/01/20 05:11:50;;;;;;;33.92;18.35;;;1.20;99.90;;;;;;5024329;28;20841;-63
2023/01/20 05:14:18;;;;;;;34.97;19.02;;;1.20;99.90;;;;;;5021682;28;20412;-62
2023/01/20 05:16:45;;;;;;;33.97;18.30;;;1.30;99.90;;;;;;5018702;28;20420;-63
2023/01/20 05:19:13;;;;;;;29.90;17.88;;;1.40;99.90;;;;;;5019052;28;20420;-62
2023/01/20 05:21:41;;;;;;;33.03;17.85;;;1.50;99.90;;;;;;5020745;28;20446;-60
2023/01/20 05:24:08;;;;;;;32.05;18.67;;;1.30;99.90;;;;;;5021729;28;20427;-60
2023/01/20 05:26:35;;;;;;;32.33;18.05;;;1.40;99.90;;;;;;5018879;28;20430;-61
2023/01/20 05:29:02;;;;;;;35.88;19.73;;;1.40;99.90;;;;;;5017217;28;20834;-59
2023/01/20 05:31:30;;;;;;;33.35;19.35;;;1.40;99.90;;;;;;5021741;28;20444;-60
2023/01/20 05:33:57;;;;;;;37.15;20.30;;;1.40;99.90;;;;;;5022612;28;20411;-60
2023/01/20 05:36:27;;;;;;;40.55;20.25;;;1.30;99.90;;;;;;5023751;28;20886;-57
2023/01/20 05:38:54;;;;;;;40.08;20.27;;;1.10;99.90;;;;;;5022729;28;20427;-62
2023/01/20 05:41:21;;;;;;;35.30;19.27;;;1.20;99.90;;;;;;5018036;28;20892;-59
2023/01/20 05:43:47;;;;;;;34.63;19.65;;;1.30;99.90;;;;;;5025016;28;20439;-62
2023/01/20 05:46:14;;;;;;;37.65;19.42;;;1.20;99.90;;;;;;5014696;28;20448;-59
2023/01/20 05:48:42;;;;;;;38.33;19.37;;;1.20;99.90;;;;;;5013370;28;20523;-61
2023/01/20 05:51:09;;;;;;;36.10;19.02;;;1.20;99.90;;;;;;5016346;28;20471;-61
2023/01/20 05:53:35;;;;;;;38.67;20.15;;;1.20;99.90;;;;;;5021737;28;20792;-61
2023/01/20 05:56:04;;;;;;;41.85;20.77;;;1.20;99.90;;;;;;5019734;28;20420;-59
2023/01/20 05:58:32;;;;;;;40.90;21.58;;;0.90;99.90;;;;;;5014377;28;20426;-59
2023/01/20 06:01:05;;;;;;;41.97;22.35;;;0.90;99.90;;;;;;5020008;28;20769;-59
2023/01/20 06:03:31;;;;;;;38.20;21.73;;;0.80;99.90;;;;;;5020896;28;20420;-61
2023/01/20 06:06:01;;;;;;;43.65;22.13;;;0.90;99.90;;;;;;5023017;28;20419;-61
2023/01/20 06:08:28;;;;;;;47.60;23.60;;;0.90;99.90;;;;;;5022802;28;20427;-61
2023/01/20 06:10:55;;;;;;;44.53;22.55;;;0.80;99.90;;;;;;5020230;28;20811;-58
2023/01/20 06:13:22;;;;;;;43.53;22.52;;;1.00;99.90;;;;;;5021595;28;20497;-62
2023/01/20 06:15:51;;;;;;;43.63;22.50;;;1.10;99.90;;;;;;5018406;28;20475;-61
2023/01/20 06:18:18;;;;;;;45.53;23.00;;;0.90;99.90;;;;;;5016833;28;20806;-61
2023/01/20 06:20:45;;;;;;;47.20;22.63;;;0.90;99.90;;;;;;5017903;28;20502;-62
2023/01/20 06:23:13;;;;;;;43.47;22.05;;;1.00;99.90;;;;;;5018711;28;20884;-64
2023/01/20 06:25:40;;;;;;;43.53;22.40;;;1.10;99.90;;;;;;5015136;28;20525;-64
2023/01/20 06:28:07;;;;;;;37.30;21.17;;;1.10;99.90;;;;;;5019224;28;20528;-67
2023/01/20 06:30:34;;;;;;;43.72;22.60;;;1.00;99.90;;;;;;5016647;28;20934;-68
2023/01/20 06:33:01;;;;;;;41.90;22.73;;;1.10;99.90;;;;;;5018793;28;20416;-65
2023/01/20 06:35:27;;;;;;;41.30;22.15;;;1.10;99.90;;;;;;5019094;28;20416;-64
2023/01/20 06:37:57;;;;;;;44.90;22.55;;;1.30;99.90;;;;;;5021426;28;20473;-64
2023/01/20 06:40:25;;;;;;;44.83;21.90;;;1.40;99.90;;;;;;5020110;28;21249;-65
2023/01/20 06:42:52;;;;;;;42.67;22.60;;;1.40;99.90;;;;;;5019087;28;20419;-66
2023/01/20 06:45:19;;;;;;;43.75;23.10;;;1.50;99.90;;;;;;5014438;28;20421;-64
2023/01/20 06:47:48;;;;;;;45.57;24.40;;;1.20;99.90;;;;;;5014511;28;20438;-64
2023/01/20 06:50:16;;;;;;;51.22;24.63;;;1.30;99.90;;;;;;5013369;28;20421;-62
2023/01/20 06:52:42;;;;;;;47.38;23.98;;;1.30;99.90;;;;;;5014206;28;20417;-62
2023/01/20 06:55:09;;;;;;;47.30;24.63;;;1.20;99.90;;;;;;5010399;28;20432;-61
2023/01/20 06:57:37;;;;;;;49.55;24.60;;;1.30;99.90;;;;;;5017355;28;20475;-61
2023/01/20 07:00:05;;;;;;;44.97;23.48;;;1.10;99.90;;;;;;5013392;28;20471;-63
2023/01/20 07:02:31;;;;;;;48.17;23.60;;;1.10;99.90;;;;;;5015922;28;20424;-60
2023/01/20 07:04:59;;;;;;;43.72;23.38;;;0.90;99.90;;;;;;5020544;28;20419;-59
2023/01/20 07:07:25;;;;;;;49.20;26.58;;;1.00;99.90;;;;;;5021370;28;20457;-62
2023/01/20 07:09:54;;;;;;;44.67;25.20;;;1.00;99.90;;;;;;5019841;28;20408;-57
2023/01/20 07:12:21;;;;;;;41.67;22.73;;;1.00;99.90;;;;;;5019886;28;20416;-59
2023/01/20 07:14:49;;;;;;;41.25;21.20;;;1.10;99.90;;;;;;5018256;28;20427;-60
2023/01/20 07:17:15;;;;;;;38.45;20.17;;;1.10;99.90;;;;;;5017111;28;20436;-60
2023/01/20 07:19:42;;;;;;;35.85;19.77;;;1.10;99.90;;;;;;5018826;28;20423;-58
2023/01/20 07:22:09;;;;;;;35.43;19.93;;;1.10;99.90;;;;;;5017608;28;20500;-61
2023/01/20 07:24:36;;;;;;;33.55;19.52;;;1.00;99.90;;;;;;5017510;28;20474;-62
2023/01/20 07:27:02;;;;;;;37.08;20.08;;;1.10;99.90;;;;;;5019042;28;20418;-58
2023/01/20 07:29:29;;;;;;;38.28;20.35;;;1.20;99.90;;;;;;5013883;28;20432;-61
2023/01/20 07:31:57;;;;;;;38.33;20.50;;;1.10;99.90;;;;;;5022819;28;20482;-59
2023/01/20 07:34:24;;;;;;;35.30;21.00;;;1.00;99.90;;;;;;5020324;28;20475;-63
2023/01/20 07:36:51;;;;;;;37.65;21.30;;;1.20;99.90;;;;;;5017812;28;20426;-53
2023/01/20 07:39:18;;;;;;;34.28;20.27;;;1.20;99.90;;;;;;5019540;28;20825;-55
2023/01/20 07:41:47;;;;;;;35.87;20.93;;;1.30;99.90;;;;;;5019984;28;20795;-54
2023/01/20 07:44:14;;;;;;;36.42;21.52;;;1.30;99.90;;;;;;5021963;28;20415;-59
2023/01/20 07:46:41;;;;;;;36.47;21.35;;;1.30;99.90;;;;;;5016312;28;20415;-60
2023/01/20 07:49:10;;;;;;;35.95;21.85;;;1.30;99.90;;;;;;5015208;28;20435;-54
2023/01/20 07:51:38;;;;;;;37.75;22.40;;;1.20;99.90;;;;;;5018095;28;20568;-59
2023/01/20 07:54:05;;;;;;;40.75;23.50;;;1.20;99.90;;;;;;5019056;28;20491;-58
2023/01/20 07:56:32;;;;;;;40.03;23.40;;;1.00;99.90;;;;;;5016450;28;20415;-65
2023/01/20 07:58:59;;;;;;;42.50;23.20;;;0.90;99.90;;;;;;5007114;28;20433;-59
2023/01/20 08:01:28;;;;;;;40.80;23.42;;;0.90;99.90;;;;;;5016053;28;20428;-60
2023/01/20 08:03:55;;;;;;;40.67;23.30;;;0.90;99.90;;;;;;5014049;28;20478;-59
2023/01/20 08:06:25;;;;;;;39.75;23.38;;;0.90;99.90;;;;;;5019855;28;20421;-60
2023/01/20 08:08:52;;;;;;;38.17;22.83;;;0.90;99.90;;;;;;5021056;28;20427;-57
2023/01/20 08:11:19;;;;;;;37.00;22.30;;;0.90;99.90;;;;;;5022783;28;20423;-60
2023/01/20 08:13:46;;;;;;;39.55;22.98;;;0.90;99.90;;;;;;5022359;28;20826;-61
2023/01/20 08:16:16;;;;;;;38.10;22.75;;;0.90;99.90;;;;;;5020097;28;20512;-61
2023/01/20 08:18:43;;;;;;;37.63;22.40;;;0.90;99.90;;;;;;5020669;28;20462;-59
2023/01/20 08:21:18;;;;;;;36.97;21.92;;;0.90;99.90;;;;;;5024923;28;20829;-58
2023/01/20 08:23:46;;;;;;;39.25;22.42;;;0.70;99.90;;;;;;5026110;28;20419;-62
2023/01/20 08:26:12;;;;;;;32.80;19.95;;;0.80;99.90;;;;;;5022283;28;20420;-59
2023/01/20 08:28:39;;;;;;;35.50;20.35;;;1.00;99.90;;;;;;5024986;28;20831;-58
2023/01/20 08:31:08;;;;;;;34.03;20.02;;;1.10;99.90;;;;;;5023512;28;20421;-56
2023/01/20 08:33:35;;;;;;;33.35;20.50;;;1.00;99.90;;;;;;5024405;28;20415;-60
2023/01/20 08:36:08;;;;;;;30.92;19.35;;;0.90;99.90;;;;;;5022418;28;20416;-56
2023/01/20 08:38:35;;;;;;;28.27;18.48;;;0.90;99.90;;;;;;5022129;28;20413;-57
2023/01/20 08:41:07;;;;;;;32.92;19.60;;;0.90;99.90;;;;;;5023399;28;20924;-62
2023/01/20 08:43:33;;;;;;;35.20;20.30;;;0.80;99.90;;;;;;5024770;28;20450;-59
2023/01/20 08:46:01;;;;;;;30.98;19.83;;;0.90;99.90;;;;;;5019088;28;20422;-64
2023/01/20 08:48:28;;;;;;;32.53;20.80;;;0.90;99.90;;;;;;5019807;28;20477;-56
2023/01/20 08:50:56;;;;;;;34.35;21.35;;;1.00;99.90;;;;;;5022197;28;20412;-62
2023/01/20 08:53:22;;;;;;;37.65;22.88;;;1.10;99.90;;;;;;5022359;28;20463;-56
2023/01/20 08:55:56;;;;;;;37.73;22.50;;;1.10;99.90;;;;;;5019609;28;20423;-57
2023/01/20 08:58:25;;;;;;;37.45;22.42;;;1.10;99.90;;;;;;5015195;28;20507;-54
2023/01/20 09:00:52;;;;;;;37.78;22.92;;;1.20;99.90;;;;;;5024651;28;20415;-59
2023/01/20 09:04:22;;;;;;;34.83;22.23;;;1.40;99.90;;;;;;5078576;28;20676;-61
2023/01/20 09:06:51;;;;;;;38.10;23.98;;;1.30;99.90;;;;;;5075593;28;20408;-62
2023/01/20 09:09:20;;;;;;;34.63;22.27;;;1.30;99.90;;;;;;5075664;28;20424;-63
2023/01/20 09:11:50;;;;;;;34.33;22.17;;;1.40;99.90;;;;;;5061795;28;20408;-60
2023/01/20 09:14:17;;;;;;;38.35;23.52;;;1.40;99.90;;;;;;5075232;28;20496;-59
2023/01/20 09:16:43;;;;;;;39.67;23.13;;;1.30;99.90;;;;;;5071749;28;20982;-58
2023/01/20 09:19:10;;;;;;;35.83;23.95;;;1.30;99.90;;;;;;5075891;28;20427;-57
2023/01/20 09:21:38;;;;;;;37.63;23.33;;;1.40;99.90;;;;;;5077909;28;20500;-58
2023/01/20 09:24:06;;;;;;;34.70;23.00;;;1.40;99.90;;;;;;5076472;28;20464;-61
2023/01/20 09:26:37;;;;;;;39.42;22.55;;;1.40;99.90;;;;;;5074642;28;20415;-59
2023/01/20 09:29:07;;;;;;;38.70;23.63;;;1.50;99.90;;;;;;5071913;28;20494;-55
2023/01/20 09:31:34;;;;;;;37.47;23.40;;;1.60;99.90;;;;;;5070695;28;20432;-53
2023/01/20 09:34:02;;;;;;;34.53;22.15;;;1.60;99.90;;;;;;5076926;28;20410;-57
2023/01/20 09:36:29;;;;;;;38.30;22.48;;;1.70;99.90;;;;;;5073310;28;20424;-56
2023/01/20 09:44:48;;;;;;;31.80;18.80;;;1.70;99.90;;;;;;5072620;28;20890;-57
2023/01/20 09:47:37;;;;;;;29.40;19.35;;;1.60;99.90;;;;;;5071496;28;20418;-55
2023/01/20 09:53:34;;;;;;;29.43;18.87;;;1.60;99.90;;;;;;5076650;28;20406;-58
2023/01/20 09:56:08;;;;;;;29.77;18.10;;;1.70;99.90;;;;;;5076572;28;21147;-56
2023/01/20 09:58:45;;;;;;;29.55;18.55;;;1.70;99.90;;;;;;5068144;28;20435;-56
2023/01/20 10:01:19;;;;;;;31.38;18.85;;;1.80;99.90;;;;;;5063650;28;20425;-67
2023/01/20 10:03:54;;;;;;;32.67;19.30;;;1.70;99.90;;;;;;5091871;28;20428;-67
2023/01/20 10:06:26;;;;;;;32.70;19.42;;;1.80;99.90;;;;;;5093535;28;20418;-60
2023/01/20 10:08:57;;;;;;;28.83;18.70;;;1.70;99.90;;;;;;5093037;28;20431;-61
2023/01/20 10:11:28;;;;;;;32.77;19.40;;;1.80;99.90;;;;;;5094130;28;20498;-63
2023/01/20 10:14:02;;;;;;;33.65;19.75;;;1.70;99.90;;;;;;5090937;28;20389;-58
2023/01/20 10:16:36;;;;;;;31.15;19.65;;;1.80;99.90;;;;;;5075411;28;20413;-60
2023/01/20 10:19:08;;;;;;;30.02;18.95;;;1.90;99.90;;;;;;5081425;28;20892;-60
2023/01/20 10:21:40;;;;;;;28.30;17.98;;;1.80;99.90;;;;;;5082327;28;20412;-60
2023/01/20 10:24:11;;;;;;;28.83;17.75;;;1.90;99.90;;;;;;5081530;28;20434;-61
2023/01/20 10:26:46;;;;;;;25.67;16.58;;;1.90;99.90;;;;;;5084535;28;20511;-61
2023/01/20 10:29:21;;;;;;;27.48;17.17;;;2.00;99.90;;;;;;5080614;28;20473;-57
2023/01/20 10:31:57;;;;;;;26.55;17.10;;;1.80;98.60;;;;;;5080673;28;20423;-58
2023/01/20 10:34:27;;;;;;;29.10;17.13;;;2.00;99.90;;;;;;5081543;28;20411;-55
2023/01/20 10:37:02;;;;;;;27.88;16.90;;;1.90;97.90;;;;;;5082652;28;20410;-61
2023/01/20 10:39:38;;;;;;;24.88;15.18;;;1.90;96.90;;;;;;5082831;28;20420;-57
2023/01/20 10:42:11;;;;;;;24.13;15.67;;;1.70;79.80;;;;;;5076639;28;20413;-62
2023/01/20 10:44:38;;;;;;;23.17;15.38;;;1.70;91.60;;;;;;5079437;28;20934;-57
2023/01/20 10:47:31;;;;;;;19.90;13.38;;;1.70;97.50;;;;;;5073610;28;20416;-60
2023/01/20 10:50:33;;;;;;;21.75;14.38;;;1.80;92.10;;;;;;5081193;28;20402;-56
2023/01/20 10:53:23;;;;;;;20.80;14.02;;;1.90;94.30;;;;;;5016261;28;20902;-56
2023/01/20 10:56:03;;;;;;;17.67;12.50;;;2.00;92.20;;;;;;5079199;28;20916;-58
2023/01/20 10:58:33;;;;;;;18.77;12.98;;;1.90;87.20;;;;;;5069392;28;21095;-59
2023/01/20 11:01:03;;;;;;;18.92;12.95;;;1.80;83.90;;;;;;5077647;28;20422;-60
2023/01/20 11:03:34;;;;;;;26.85;17.38;;;1.80;90.80;;;;;;5082512;28;20429;-60
2023/01/20 11:06:02;;;;;;;34.33;19.98;;;1.90;90.20;;;;;;5077666;28;20418;-60
2023/01/20 11:08:30;;;;;;;34.53;20.33;;;1.90;74.70;;;;;;5080143;28;20415;-61
2023/01/20 11:11:00;;;;;;;34.13;20.00;;;1.90;74.30;;;;;;5075809;28;20412;-55
2023/01/20 11:13:27;;;;;;;36.13;20.58;;;1.90;73.70;;;;;;5080588;28;20415;-57
2023/01/20 11:15:59;;;;;;;35.90;21.02;;;1.90;60.80;;;;;;5084911;28;20900;-58
2023/01/20 11:18:29;;;;;;;35.40;20.02;;;2.10;66.60;;;;;;5079055;28;20422;-58
2023/01/20 11:20:59;;;;;;;33.08;20.08;;;2.20;56.70;;;;;;5076374;28;20416;-63
2023/01/20 11:23:34;;;;;;;30.40;18.67;;;2.40;59.90;;;;;;5079586;28;20427;-54
2023/01/20 11:26:08;;;;;;;28.67;16.92;;;2.40;47.20;;;;;;5075132;28;20482;-56
2023/01/20 11:28:45;;;;;;;30.08;18.23;;;2.40;51.00;;;;;;5082373;28;20842;-63
2023/01/20 11:31:14;;;;;;;29.52;17.88;;;2.40;39.10;;;;;;5083083;28;20806;-63
2023/01/20 11:33:53;;;;;;;24.35;14.38;;;2.60;45.60;;;;;;5081385;28;20435;-62
2023/01/20 11:36:22;;;;;;;24.63;15.10;;;2.60;28.60;;;;;;5076571;28;20406;-62
2023/01/20 11:38:51;;;;;;;24.65;15.57;;;2.40;23.30;;;;;;5077931;28;20463;-63
2023/01/20 11:41:20;;;;;;;20.63;13.50;;;2.40;32.60;;;;;;5077168;28;20415;-63
2023/01/20 11:43:47;;;;;;;22.90;14.55;;;2.50;28.20;;;;;;5077128;28;20514;-63
2023/01/20 11:46:25;;;;;;;22.77;13.18;;;2.50;33.60;;;;;;5079859;28;20411;-63
2023/01/20 11:49:16;;;;;;;20.33;11.77;;;2.50;27.50;;;;;;5080953;28;20414;-63
2023/01/20 11:51:49;;;;;;;19.67;12.48;;;2.40;25.50;;;;;;5078890;28;20418;-63
2023/01/20 11:54:17;;;;;;;20.20;11.68;;;2.50;40.70;;;;;;5079305;28;20408;-62
2023/01/20 11:56:47;;;;;;;14.13;9.90;;;2.50;38.60;;;;;;5075913;28;20430;-63
2023/01/20 11:59:24;;;;;;;16.10;9.98;;;2.60;22.10;;;;;;5078101;28;20406;-62
2023/01/20 12:01:56;;;;;;;15.35;9.80;;;2.60;20.00;;;;;;5078437;28;20411;-63
2023/01/20 12:04:43;;;;;;;14.02;8.80;;;2.50;30.80;;;;;;5078848;28;20427;-63
2023/01/20 12:07:13;;;;;;;14.48;8.27;;;2.50;32.30;;;;;;5062948;28;20427;-63
2023/01/20 12:09:43;;;;;;;14.27;9.40;;;2.50;29.90;;;;;;5078582;28;21067;-66
2023/01/20 12:12:17;;;;;;;13.10;8.50;;;2.40;32.90;;;;;;5072151;28;20415;-63
2023/01/20 12:14:49;;;;;;;17.23;9.35;;;2.50;38.10;;;;;;5071423;28;20442;-63
2023/01/20 12:17:26;;;;;;;13.93;8.82;;;2.50;47.90;;;;;;5071400;28;20969;-62
2023/01/20 12:20:03;;;;;;;14.05;9.05;;;2.40;45.20;;;;;;5071466;28;20406;-61
2023/01/20 12:22:40;;;;;;;14.15;8.73;;;2.50;49.50;;;;;;5079602;28;20455;-63
2023/01/20 12:25:18;;;;;;;15.02;9.07;;;2.60;54.20;;;;;;5078565;28;20427;-63
2023/01/20 12:27:49;;;;;;;11.95;8.60;;;2.50;33.50;;;;;;5082288;28;20417;-59
2023/01/20 12:30:40;;;;;;;15.38;9.20;;;2.70;30.70;;;;;;5075401;28;20897;-64
2023/01/20 12:33:19;;;;;;;14.07;9.90;;;2.50;19.00;;;;;;5077875;28;20414;-67
2023/01/20 12:36:24;;;;;;;14.53;9.43;;;2.70;51.40;;;;;;5074702;28;20738;-67
2023/01/20 12:39:03;;;;;;;13.60;8.65;;;2.80;38.90;;;;;;5011979;28;20500;-70
2023/01/20 12:41:46;;;;;;;16.70;8.95;;;3.00;21.40;;;;;;5016274;28;20421;-69
2023/01/20 12:44:20;;;;;;;15.48;8.35;;;3.20;34.80;;;;;;5052714;28;20427;-68
2023/01/20 12:46:52;;;;;;;13.63;8.10;;;3.10;2.90;;;;;;5075996;28;20471;-67
2023/01/20 12:49:45;;;;;;;14.40;8.23;;;3.00;1.00;;;;;;5075246;28;20414;-67
2023/01/20 12:52:25;;;;;;;13.85;8.20;;;3.00;10.40;;;;;;5078270;28;20413;-68
2023/01/20 12:55:16;;;;;;;12.38;8.68;;;2.90;11.70;;;;;;5077991;28;20819;-68
2023/01/20 12:57:58;;;;;;;14.13;8.88;;;3.20;23.30;;;;;;5079291;28;20418;-61
2023/01/20 13:00:48;;;;;;;15.43;8.73;;;3.50;1.00;;;;;;5076474;28;20420;-59
2023/01/20 13:03:47;;;;;;;12.90;8.50;;;3.40;1.00;;;;;;5072122;28;20422;-59
2023/01/20 13:06:31;;;;;;;13.85;8.65;;;3.50;1.00;;;;;;5077195;28;20409;-60